KOKC/OKC METAR and TAF weather

Enter ICAO airport designator
Station Type Date Time Source
KOKC METAR 2020/10/20 15:52 UTC NOAA

KOKC 201552Z 14005KT 2SM BR OVC003 11/09 A3003 RMK AO2 SFC VIS 3 SLP167 T01060094


Station Type Date Time Source
KOKC Decoded METAR 2020/10/20 15:52 UTC NOAA

WILL ROGERS WORLD AIRPORT, OK, United States (KOKC) 35-23N 97-36W 390M
Oct 20, 2020 - 11:52 AM EDT / 2020.10.20 1552 UTC
Wind: from the SE (140 degrees) at 6 MPH (5 KT):0
Visibility: 2 mile(s):0
Sky conditions: overcast
Weather: mist
Temperature: 51.1 F (10.6 C)
Dew Point: 48.9 F (9.4 C)
Relative Humidity: 92%
Pressure (altimeter): 30.03 in. Hg (1016 hPa)
ob: KOKC 201552Z 14005KT 2SM BR OVC003 11/09 A3003 RMK AO2 SFC VIS 3 SLP167 T01060094
cycle: 16

Station Type Date Time Source
KOKC TAF 2020/10/20 14:04 UTC NOAA

TAF
AMD KOKC 201402Z 2014/2112 12006KT P6SM OVC006
TEMPO 2014/2016 2SM -DZ BR OVC004
FM201700 16011KT P6SM OVC015
FM202000 18013KT P6SM OVC025
FM210200 11008KT P6SM BKN035 PROB30 2103/2106 4SM TSRA OVC025CB
FM210800 08007KT P6SM OVC009 WS020/19030KT

Example: see airport list